Time;durP1;ratioP1;P1;durP2;ratioP2;P2;SDS_P1;SDS_P2;PMS_P1;PMS_P2;Temp;Humidity;BMP_temperature;BMP_pressure;BME280_temperature;BME280_humidity;BME280_pressure;Samples;Min_cycle;Max_cycle;Signal;HPM_P1;HPM_P2
2023/01/29 00:01:27;;;;;;;;;42.50;39.00;;;;;4.15;100.00;102620.13;5031280;28;45596;-76
2023/01/29 00:03:53;;;;;;;;;56.50;44.00;;;;;4.17;100.00;102628.13;5031430;28;45426;-78
2023/01/29 00:06:19;;;;;;;;;59.25;41.50;;;;;4.15;100.00;102624.69;5029941;28;45417;-79
2023/01/29 00:08:44;;;;;;;;;57.75;43.75;;;;;4.11;100.00;102623.19;5004075;28;45736;-76
2023/01/29 00:11:10;;;;;;;;;57.50;45.00;;;;;4.10;100.00;102626.88;5027820;28;45958;-75
2023/01/29 00:13:35;;;;;;;;;60.00;45.25;;;;;4.09;100.00;102619.72;5014658;28;45450;-75
2023/01/29 00:16:03;;;;;;;;;56.25;44.00;;;;;3.97;100.00;102606.13;5032536;28;45464;-77
2023/01/29 00:18:29;;;;;;;;;58.50;45.00;;;;;4.09;100.00;102620.59;5032744;28;45464;-76
2023/01/29 00:20:55;;;;;;;;;58.75;44.75;;;;;4.02;100.00;102619.34;5022705;28;46245;-76
2023/01/29 00:23:21;;;;;;;;;57.50;44.75;;;;;4.02;100.00;102616.63;5013522;28;46954;-76
2023/01/29 00:25:46;;;;;;;;;53.50;42.75;;;;;4.03;100.00;102615.66;5015174;28;46013;-76
2023/01/29 00:28:13;;;;;;;;;60.00;44.25;;;;;4.04;100.00;102629.09;5028668;28;45853;-75
2023/01/29 00:30:39;;;;;;;;;53.75;43.75;;;;;4.01;100.00;102618.50;5030939;28;45802;-75
2023/01/29 00:33:05;;;;;;;;;66.25;48.50;;;;;3.97;100.00;102618.84;5032314;28;45407;-77
2023/01/29 00:35:31;;;;;;;;;58.00;42.75;;;;;3.97;100.00;102617.00;5019025;28;45875;-78
2023/01/29 00:37:57;;;;;;;;;52.50;44.75;;;;;3.96;100.00;102614.41;5032698;28;45655;-76
2023/01/29 00:40:24;;;;;;;;;54.75;43.75;;;;;3.95;100.00;102623.50;5032554;28;45464;-74
2023/01/29 00:45:35;;;;;;;;;63.50;47.50;;;;;3.85;100.00;102607.94;5032999;28;45719;-76
2023/01/29 00:48:01;;;;;;;;;61.50;47.00;;;;;3.73;100.00;102603.47;4995323;28;45428;-77
2023/01/29 00:50:26;;;;;;;;;62.00;47.25;;;;;3.82;100.00;102613.63;5026384;28;45413;-75
2023/01/29 00:52:53;;;;;;;;;60.25;45.25;;;;;3.81;100.00;102605.59;5028221;28;47899;-75
2023/01/29 00:55:19;;;;;;;;;55.50;45.75;;;;;3.81;100.00;102611.88;5026250;28;45700;-77
2023/01/29 00:57:45;;;;;;;;;58.50;46.50;;;;;3.79;100.00;102613.00;5033175;28;45627;-76
2023/01/29 01:00:14;;;;;;;;;55.75;43.50;;;;;3.76;100.00;102607.78;5032959;28;45717;-75
2023/01/29 01:05:24;;;;;;;;;60.25;45.50;;;;;3.74;100.00;102610.59;5032437;28;45476;-74
2023/01/29 01:07:52;;;;;;;;;56.75;44.25;;;;;3.59;100.00;102588.22;5016258;28;45450;-75
2023/01/29 01:10:23;;;;;;;;;57.50;43.50;;;;;3.66;100.00;102605.78;5032174;28;45432;-75
2023/01/29 01:13:05;;;;;;;;;55.00;46.00;;;;;3.62;100.00;102607.00;5014508;28;46994;-75
2023/01/29 01:15:34;;;;;;;;;61.00;45.75;;;;;3.60;100.00;102600.81;5019113;28;45932;-75
2023/01/29 01:18:02;;;;;;;;;56.50;45.00;;;;;3.57;100.00;102609.19;5014763;28;45878;-76
2023/01/29 01:20:30;;;;;;;;;59.25;46.25;;;;;3.54;100.00;102606.72;5032017;28;45588;-75
2023/01/29 01:22:56;;;;;;;;;64.00;47.25;;;;;3.46;100.00;102590.19;5031418;28;45399;-75
2023/01/29 01:25:23;;;;;;;;;61.00;46.00;;;;;3.47;100.00;102592.78;5011400;28;45853;-77
2023/01/29 01:27:57;;;;;;;;;54.25;43.00;;;;;3.49;100.00;102595.38;5026190;28;45789;-77
2023/01/29 01:30:24;;;;;;;;;55.00;45.00;;;;;3.45;100.00;102599.28;5029754;28;45600;-77
2023/01/29 01:32:49;;;;;;;;;62.00;47.00;;;;;3.43;100.00;102601.22;5017624;28;46076;-77
2023/01/29 01:35:15;;;;;;;;;46.25;39.00;;;;;3.39;100.00;102597.03;5023601;28;45680;-75
2023/01/29 01:37:40;;;;;;;;;53.50;43.50;;;;;3.43;100.00;102607.53;5032213;28;45761;-77
2023/01/29 01:40:19;;;;;;;;;56.50;44.00;;;;;3.45;100.00;102599.28;5032172;28;45765;-77
2023/01/29 01:42:56;;;;;;;;;56.75;41.75;;;;;3.44;100.00;102608.41;5013699;28;47033;-75
2023/01/29 01:45:26;;;;;;;;;56.25;45.25;;;;;3.43;100.00;102599.41;5031526;28;45783;-75
2023/01/29 01:47:58;;;;;;;;;60.00;47.00;;;;;3.46;100.00;102606.44;5031587;28;45398;-74
2023/01/29 01:50:33;;;;;;;;;53.50;43.25;;;;;3.47;100.00;102609.03;5013555;28;45743;-75
2023/01/29 01:53:07;;;;;;;;;57.75;45.25;;;;;3.49;100.00;102608.94;5014180;28;48219;-75
2023/01/29 01:55:37;;;;;;;;;61.25;44.75;;;;;3.47;100.00;102600.03;5031537;28;45784;-75
2023/01/29 01:58:11;;;;;;;;;61.75;46.75;;;;;3.45;100.00;102607.44;5014234;28;45398;-75
2023/01/29 02:00:38;;;;;;;;;57.00;45.00;;;;;3.44;100.00;102602.97;5030671;28;45449;-75
2023/01/29 02:11:39;;;;;;;;;62.00;45.00;;;;;3.45;100.00;102618.28;5019286;28;45484;-73
2023/01/29 02:14:05;;;;;;;;;62.00;43.75;;;;;3.48;100.00;102615.31;5029935;28;45573;-74
2023/01/29 02:16:34;;;;;;;;;57.75;44.25;;;;;3.44;100.00;102617.38;5030833;28;45848;-77
2023/01/29 02:19:00;;;;;;;;;51.50;41.25;;;;;3.37;100.00;102618.84;5029473;28;45761;-75
2023/01/29 02:21:49;;;;;;;;;58.50;45.50;;;;;3.35;100.00;102621.69;5028542;28;45353;-78
2023/01/29 02:24:42;;;;;;;;;58.25;42.25;;;;;3.32;100.00;102615.59;5024896;28;45732;-76
2023/01/29 02:27:23;;;;;;;;;54.75;40.75;;;;;3.33;100.00;102615.50;5030998;28;45691;-75
2023/01/29 02:30:06;;;;;;;;;53.00;41.75;;;;;3.33;100.00;102618.19;5023793;28;45690;-75
2023/01/29 02:33:08;;;;;;;;;55.25;43.50;;;;;3.34;100.00;102616.38;5033792;28;45976;-75
2023/01/29 02:35:38;;;;;;;;;57.75;40.25;;;;;3.34;100.00;102609.09;5034069;28;46068;-76
2023/01/29 02:38:06;;;;;;;;;51.25;39.75;;;;;3.36;100.00;102612.53;5033564;28;45441;-75
2023/01/29 02:40:51;;;;;;;;;49.75;39.50;;;;;3.35;100.00;102610.84;5033804;28;45804;-74
2023/01/29 02:43:36;;;;;;;;;51.75;38.50;;;;;3.38;100.00;102617.00;5025679;28;45694;-75
2023/01/29 02:46:01;;;;;;;;;49.75;38.50;;;;;3.34;100.00;102603.66;5014613;28;48064;-74
2023/01/29 02:48:39;;;;;;;;;43.50;34.50;;;;;3.36;100.00;102604.41;5016591;28;45769;-74
2023/01/29 02:51:12;;;;;;;;;45.75;35.00;;;;;3.42;100.00;102607.66;5017386;28;45343;-74
2023/01/29 02:54:04;;;;;;;;;44.50;36.75;;;;;3.39;100.00;102599.75;5034928;28;45666;-74
2023/01/29 02:56:43;;;;;;;;;51.75;38.75;;;;;3.34;100.00;102586.53;5015196;28;45481;-75
2023/01/29 02:59:19;;;;;;;;;54.75;39.75;;;;;3.39;100.00;102583.47;5035330;28;45311;-74
2023/01/29 03:01:50;;;;;;;;;54.25;40.50;;;;;3.43;100.00;102579.53;5035752;28;45405;-75
2023/01/29 03:04:25;;;;;;;;;54.75;43.75;;;;;3.38;100.00;102582.59;5035432;28;45871;-75
2023/01/29 03:06:57;;;;;;;;;46.25;41.00;;;;;3.33;100.00;102576.66;5022625;28;46366;-75
2023/01/29 03:09:38;;;;;;;;;51.25;40.50;;;;;3.26;100.00;102576.25;5017754;28;45832;-74
2023/01/29 03:12:32;;;;;;;;;55.50;45.25;;;;;3.19;100.00;102585.84;5014894;28;45544;-74
2023/01/29 03:15:10;;;;;;;;;53.00;42.25;;;;;3.15;100.00;102592.47;5021387;28;46330;-74
2023/01/29 03:17:44;;;;;;;;;51.00;42.00;;;;;3.14;100.00;102585.31;5035477;28;45385;-75
2023/01/29 03:20:16;;;;;;;;;49.50;39.25;;;;;2.96;100.00;102568.56;5035124;28;45257;-75
2023/01/29 03:22:49;;;;;;;;;39.25;36.75;;;;;3.03;100.00;102580.69;5035280;28;45644;-75
2023/01/29 03:34:15;;;;;;;;;50.00;41.25;;;;;2.98;100.00;102578.34;5035136;28;45675;-74
2023/01/29 03:36:54;;;;;;;;;61.75;47.50;;;;;2.97;100.00;102571.16;5033186;28;45433;-75
2023/01/29 03:39:21;;;;;;;;;55.50;42.50;;;;;2.95;100.00;102577.66;5017095;28;46336;-75
2023/01/29 03:41:49;;;;;;;;;57.50;44.00;;;;;2.94;100.00;102576.81;5017249;28;45469;-75
2023/01/29 03:44:28;;;;;;;;;52.00;41.25;;;;;2.97;100.00;102583.88;5032973;28;45674;-75
2023/01/29 03:47:39;;;;;;;;;58.75;43.00;;;;;2.97;100.00;102586.56;5016327;28;46140;-74
2023/01/29 03:50:34;;;;;;;;;54.75;42.50;;;;;2.93;100.00;102580.50;5004033;28;48104;-76
2023/01/29 03:53:23;;;;;;;;;58.75;46.00;;;;;2.88;100.00;102590.81;5013660;28;45997;-74
2023/01/29 03:56:05;;;;;;;;;56.50;45.00;;;;;2.91;100.00;102574.34;5034137;28;45766;-75
2023/01/29 03:59:02;;;;;;;;;63.00;47.00;;;;;2.83;100.00;102580.31;5016658;28;47076;-75
2023/01/29 04:01:51;;;;;;;;;58.25;45.25;;;;;2.82;100.00;102566.91;5033922;28;45686;-75
2023/01/29 04:04:37;;;;;;;;;59.00;46.25;;;;;2.84;100.00;102567.63;5034351;28;45461;-73
2023/01/29 04:07:11;;;;;;;;;58.25;44.00;;;;;2.74;100.00;102555.75;5034415;28;45707;-75
2023/01/29 04:10:02;;;;;;;;;59.25;46.25;;;;;2.77;100.00;102566.34;5021510;28;45648;-76
2023/01/29 04:12:39;;;;;;;;;64.00;47.00;;;;;2.80;100.00;102574.28;5034142;28;45331;-75
2023/01/29 04:15:10;;;;;;;;;56.75;46.00;;;;;2.76;100.00;102570.06;5032628;28;45495;-75
2023/01/29 04:17:42;;;;;;;;;58.75;45.50;;;;;2.77;100.00;102569.06;5033515;28;45731;-75
2023/01/29 04:20:08;;;;;;;;;59.50;47.50;;;;;2.79;100.00;102576.09;5033598;28;45824;-75
2023/01/29 04:22:37;;;;;;;;;60.50;46.50;;;;;2.81;100.00;102576.00;5028828;28;47313;-75
2023/01/29 04:25:14;;;;;;;;;57.25;45.25;;;;;2.80;100.00;102571.56;5032946;28;45437;-75
2023/01/29 04:28:07;;;;;;;;;56.00;41.25;;;;;2.80;100.00;102574.28;5030413;28;45405;-74
2023/01/29 04:30:51;;;;;;;;;51.50;41.00;;;;;2.78;100.00;102585.19;5020013;28;45390;-74
2023/01/29 04:33:28;;;;;;;;;51.50;40.00;;;;;2.77;100.00;102577.19;5032624;28;45875;-75
2023/01/29 04:35:58;;;;;;;;;62.25;47.50;;;;;2.71;100.00;102574.94;5034305;28;45809;-76
2023/01/29 04:38:43;;;;;;;;;56.50;47.00;;;;;2.71;100.00;102585.75;5034563;28;45757;-75
2023/01/29 04:41:30;;;;;;;;;63.75;48.50;;;;;2.69;100.00;102585.03;5031548;28;45752;-75
2023/01/29 04:44:14;;;;;;;;;60.75;45.25;;;;;2.71;100.00;102588.47;5023247;28;45623;-76
2023/01/29 04:46:42;;;;;;;;;66.75;49.75;;;;;2.69;100.00;102595.84;5034380;28;45302;-76
2023/01/29 04:49:37;;;;;;;;;57.00;42.75;;;;;2.74;100.00;102599.09;5034497;28;45456;-75
2023/01/29 04:52:22;;;;;;;;;56.50;44.75;;;;;2.72;100.00;102592.94;5019434;28;45786;-74
2023/01/29 04:55:03;;;;;;;;;60.25;46.75;;;;;2.65;100.00;102603.34;5033290;28;45793;-75
2023/01/29 04:57:47;;;;;;;;;63.00;48.50;;;;;2.68;100.00;102599.53;5033862;28;45686;-75
2023/01/29 05:00:28;;;;;;;;;58.50;46.50;;;;;2.75;100.00;102600.81;5003630;28;45692;-74
2023/01/29 05:02:55;;;;;;;;;59.75;46.00;;;;;2.79;100.00;102594.22;5024137;28;46035;-77
2023/01/29 05:05:21;;;;;;;;;46.50;39.25;;;;;2.78;100.00;102590.63;5031757;28;45413;-74
2023/01/29 05:07:47;;;;;;;;;58.50;44.00;;;;;2.77;100.00;102597.03;5030983;28;45593;-75
2023/01/29 05:10:16;;;;;;;;;59.25;44.50;;;;;2.81;100.00;102594.97;5013947;28;45768;-73
2023/01/29 05:12:47;;;;;;;;;55.00;46.75;;;;;2.84;100.00;102592.03;5029117;28;45964;-75
2023/01/29 05:15:18;;;;;;;;;65.75;48.75;;;;;2.73;100.00;102586.53;5014590;28;47065;-74
2023/01/29 05:17:43;;;;;;;;;68.00;51.25;;;;;2.68;100.00;102577.88;5028488;28;45776;-76
2023/01/29 05:20:11;;;;;;;;;64.25;48.00;;;;;2.71;100.00;102569.50;5027830;28;45557;-76
2023/01/29 05:22:40;;;;;;;;;66.00;48.75;;;;;2.71;100.00;102574.94;5032174;28;45425;-75
2023/01/29 05:25:20;;;;;;;;;58.00;47.00;;;;;2.67;100.00;102574.31;5012250;28;45280;-78
2023/01/29 05:30:55;;;;;;;;;58.25;47.50;;;;;2.75;100.00;102574.59;5009186;28;45550;-76
2023/01/29 05:33:20;;;;;;;;;59.00;44.75;;;;;2.76;100.00;102570.91;5009747;28;45492;-76
2023/01/29 05:35:47;;;;;;;;;56.50;46.00;;;;;2.77;100.00;102575.38;5022221;28;45583;-76
2023/01/29 05:38:12;;;;;;;;;51.50;42.00;;;;;2.77;100.00;102577.19;5017820;28;45347;-76
2023/01/29 05:40:38;;;;;;;;;57.75;44.00;;;;;2.73;100.00;102579.28;5024791;28;45825;-74
2023/01/29 05:43:04;;;;;;;;;60.75;47.25;;;;;2.69;100.00;102575.03;5008385;28;45348;-75
2023/01/29 05:45:31;;;;;;;;;64.50;47.00;;;;;2.75;100.00;102573.72;5026377;28;45780;-77
2023/01/29 05:47:59;;;;;;;;;60.75;47.00;;;;;2.76;100.00;102575.47;5003894;28;45738;-75
2023/01/29 05:50:26;;;;;;;;;57.75;45.50;;;;;2.82;100.00;102575.03;5033728;28;45394;-77
2023/01/29 05:52:59;;;;;;;;;58.00;45.25;;;;;2.87;100.00;102582.81;5033711;28;45935;-77
2023/01/29 05:55:25;;;;;;;;;60.50;45.75;;;;;2.83;100.00;102580.31;5015312;28;47611;-76
2023/01/29 05:57:50;;;;;;;;;58.50;45.00;;;;;2.79;100.00;102567.97;5026213;28;45802;-76
2023/01/29 06:00:16;;;;;;;;;60.00;49.00;;;;;2.80;100.00;102575.13;5012588;28;45474;-77
2023/01/29 06:02:42;;;;;;;;;50.00;36.00;;;;;2.78;100.00;102574.38;5029679;28;45842;-75
2023/01/29 06:05:08;;;;;;;;;57.25;44.50;;;;;2.77;100.00;102586.19;5032897;28;46657;-72
2023/01/29 06:07:33;;;;;;;;;67.25;51.75;;;;;2.70;100.00;102582.19;5035642;28;45725;-75
2023/01/29 06:09:59;;;;;;;;;66.75;46.50;;;;;2.69;100.00;102579.59;5032477;28;45590;-75
2023/01/29 06:12:26;;;;;;;;;62.75;45.25;;;;;2.70;100.00;102592.19;5014358;28;46730;-76
2023/01/29 06:14:51;;;;;;;;;61.25;47.00;;;;;2.66;100.00;102588.81;5035586;28;46190;-76
2023/01/29 06:17:17;;;;;;;;;63.00;48.50;;;;;2.65;100.00;102587.97;5031225;28;45465;-77
2023/01/29 06:19:42;;;;;;;;;64.00;46.50;;;;;2.70;100.00;102589.47;5038376;28;45306;-77
2023/01/29 06:22:08;;;;;;;;;63.75;48.75;;;;;2.65;100.00;102589.81;5033596;28;45631;-77
2023/01/29 06:24:33;;;;;;;;;62.75;47.00;;;;;2.64;100.00;102585.34;5036132;28;46258;-74
2023/01/29 06:26:58;;;;;;;;;57.25;46.75;;;;;2.58;100.00;102592.09;5035316;28;45695;-74
2023/01/29 06:29:24;;;;;;;;;56.75;43.50;;;;;2.55;100.00;102588.75;5036575;28;45812;-77
2023/01/29 06:31:49;;;;;;;;;62.25;48.25;;;;;2.56;100.00;102599.47;5033009;28;45625;-76
2023/01/29 06:34:15;;;;;;;;;59.50;46.25;;;;;2.51;100.00;102593.50;5030293;28;45545;-74
2023/01/29 06:36:40;;;;;;;;;59.25;46.00;;;;;2.55;100.00;102603.13;5027808;28;45347;-77
2023/01/29 06:39:06;;;;;;;;;56.50;42.25;;;;;2.54;100.00;102598.69;5033345;28;45707;-77
2023/01/29 06:41:32;;;;;;;;;52.75;44.75;;;;;2.51;100.00;102607.03;5027082;28;45512;-73
2023/01/29 06:43:58;;;;;;;;;60.75;45.25;;;;;2.47;100.00;102605.53;5025661;28;45912;-74
2023/01/29 06:46:23;;;;;;;;;59.50;42.00;;;;;2.46;100.00;102606.50;5024354;28;45860;-74
2023/01/29 06:48:48;;;;;;;;;59.25;47.00;;;;;2.50;100.00;102613.44;5029927;28;45767;-74
2023/01/29 06:51:14;;;;;;;;;53.75;42.00;;;;;2.50;100.00;102612.56;5027507;28;45778;-76
2023/01/29 06:53:40;;;;;;;;;56.25;46.00;;;;;2.49;100.00;102609.00;5026750;28;45533;-74
2023/01/29 06:56:06;;;;;;;;;53.50;42.00;;;;;2.47;100.00;102608.25;5027538;28;45739;-74
2023/01/29 06:58:32;;;;;;;;;54.75;44.25;;;;;2.43;100.00;102606.72;5029008;28;45905;-77
2023/01/29 07:01:09;;;;;;;;;61.75;47.50;;;;;2.35;100.00;102577.50;5023939;28;45678;-76
2023/01/29 07:03:34;;;;;;;;;61.50;48.00;;;;;2.51;100.00;102589.94;5026971;28;45632;-75
2023/01/29 07:06:00;;;;;;;;;51.00;43.00;;;;;2.46;100.00;102598.38;5027920;28;45781;-76
2023/01/29 07:08:27;;;;;;;;;56.50;44.75;;;;;2.47;100.00;102600.97;5020205;28;45886;-74
2023/01/29 07:10:52;;;;;;;;;57.25;43.00;;;;;2.43;100.00;102595.91;5031500;28;45830;-74
2023/01/29 07:13:18;;;;;;;;;45.00;39.00;;;;;2.37;100.00;102601.75;5021567;28;46209;-73
2023/01/29 07:15:43;;;;;;;;;50.75;39.25;;;;;2.46;100.00;102609.22;5011536;28;45525;-74
2023/01/29 07:18:12;;;;;;;;;58.25;45.00;;;;;2.43;100.00;102601.31;5033241;28;45798;-75
2023/01/29 07:20:41;;;;;;;;;57.75;43.50;;;;;2.40;100.00;102606.94;5026262;28;45425;-76
2023/01/29 07:23:11;;;;;;;;;58.50;45.50;;;;;2.46;100.00;102611.94;5028679;28;46861;-73
2023/01/29 07:25:36;;;;;;;;;56.75;41.75;;;;;2.48;100.00;102604.56;5028688;28;45458;-73
2023/01/29 07:28:03;;;;;;;;;57.50;43.00;;;;;2.58;100.00;102602.91;5031285;28;47039;-75
2023/01/29 07:30:28;;;;;;;;;61.25;45.00;;;;;2.58;100.00;102611.03;5009821;28;45918;-75
2023/01/29 07:32:54;;;;;;;;;57.75;42.25;;;;;2.57;100.00;102593.03;5027079;28;46363;-74
2023/01/29 07:35:19;;;;;;;;;59.00;46.50;;;;;2.64;100.00;102599.75;5029110;28;45736;-77
2023/01/29 07:37:48;;;;;;;;;64.25;46.75;;;;;2.64;100.00;102593.50;5027441;28;45779;-76
2023/01/29 07:40:14;;;;;;;;;52.50;42.25;;;;;2.73;100.00;102608.22;5027431;28;45793;-74
2023/01/29 07:42:41;;;;;;;;;56.25;44.75;;;;;2.75;100.00;102615.22;5029118;28;46119;-75
2023/01/29 07:45:07;;;;;;;;;64.50;46.25;;;;;2.83;100.00;102609.28;5020822;28;45564;-76
2023/01/29 07:47:33;;;;;;;;;53.50;43.00;;;;;2.85;100.00;102610.03;5032007;28;45475;-77
2023/01/29 07:49:59;;;;;;;;;56.25;43.25;;;;;2.88;100.00;102603.53;5015474;28;45440;-75
2023/01/29 07:52:24;;;;;;;;;56.50;44.25;;;;;2.94;100.00;102603.06;5027172;28;45433;-74
2023/01/29 07:54:50;;;;;;;;;57.25;42.00;;;;;2.97;100.00;102600.97;5003911;28;45799;-73
2023/01/29 07:57:16;;;;;;;;;59.75;44.50;;;;;2.98;100.00;102604.59;5027992;28;45421;-75
2023/01/29 07:59:41;;;;;;;;;62.25;46.50;;;;;3.05;100.00;102607.69;5010144;28;46143;-73
2023/01/29 08:02:08;;;;;;;;;56.00;45.50;;;;;3.13;100.00;102605.28;5011519;28;47808;-71
2023/01/29 08:04:34;;;;;;;;;60.50;42.50;;;;;3.22;100.00;102609.13;5010740;28;45864;-74
2023/01/29 08:06:59;;;;;;;;;58.25;43.25;;;;;3.29;100.00;102595.03;5022359;28;45743;-73
2023/01/29 08:09:25;;;;;;;;;53.75;41.50;;;;;3.45;100.00;102610.13;5020963;28;45854;-74
2023/01/29 08:11:50;;;;;;;;;56.00;43.25;;;;;3.60;100.00;102613.53;5016820;28;45852;-74
2023/01/29 08:14:16;;;;;;;;;59.75;45.50;;;;;3.76;100.00;102615.91;5017293;28;45500;-73
2023/01/29 08:16:42;;;;;;;;;57.75;41.75;;;;;3.82;100.00;102596.47;5032431;28;45508;-74
2023/01/29 08:19:10;;;;;;;;;59.25;44.00;;;;;4.05;100.00;102619.09;5014408;28;45725;-73
2023/01/29 08:21:35;;;;;;;;;54.00;41.25;;;;;4.07;100.00;102609.88;5028123;28;46036;-74
2023/01/29 08:24:01;;;;;;;;;57.00;47.00;;;;;4.27;100.00;102615.56;5021059;28;45382;-74
2023/01/29 08:26:26;;;;;;;;;56.25;45.25;;;;;4.47;100.00;102600.41;5013933;28;45623;-74
2023/01/29 08:28:52;;;;;;;;;55.75;45.25;;;;;4.63;100.00;102602.75;5027639;28;45908;-75
2023/01/29 08:31:21;;;;;;;;;54.00;40.00;;;;;4.78;100.00;102601.50;5025823;28;46955;-75
2023/01/29 08:33:47;;;;;;;;;64.75;45.75;;;;;4.91;100.00;102601.38;5025541;28;46000;-75
2023/01/29 08:36:13;;;;;;;;;58.50;47.50;;;;;5.04;100.00;102605.78;5031365;28;45448;-74
2023/01/29 08:38:39;;;;;;;;;56.00;41.50;;;;;5.16;100.00;102603.91;5027198;28;46859;-76
2023/01/29 08:41:05;;;;;;;;;61.50;45.75;;;;;5.33;100.00;102607.94;5022520;28;45833;-75
2023/01/29 08:43:31;;;;;;;;;55.00;45.00;;;;;5.44;100.00;102616.09;5029482;28;44820;-76
2023/01/29 08:45:56;;;;;;;;;56.00;42.00;;;;;5.58;100.00;102620.34;5028515;28;45644;-75
2023/01/29 08:48:22;;;;;;;;;52.50;42.75;;;;;5.68;100.00;102618.59;5028519;28;45308;-73
2023/01/29 08:50:47;;;;;;;;;56.25;45.00;;;;;5.73;100.00;102608.16;5025548;28;45727;-75
2023/01/29 08:53:12;;;;;;;;;58.75;45.75;;;;;5.97;100.00;102634.31;5026791;28;45857;-75
2023/01/29 08:55:39;;;;;;;;;64.25;49.25;;;;;6.12;100.00;102629.41;5026376;28;45594;-74
2023/01/29 08:58:10;;;;;;;;;61.00;43.75;;;;;6.31;100.00;102636.84;5020798;28;45407;-76
2023/01/29 09:00:36;;;;;;;;;53.75;42.50;;;;;6.44;100.00;102650.28;5028134;28;46360;-77
2023/01/29 09:03:02;;;;;;;;;52.25;43.25;;;;;6.66;100.00;102651.94;5009502;28;45384;-75
2023/01/29 09:05:28;;;;;;;;;56.50;42.75;;;;;6.89;100.00;102650.75;5030287;28;45749;-76
2023/01/29 09:07:55;;;;;;;;;57.00;44.50;;;;;7.14;100.00;102647.69;5021330;28;45761;-76
2023/01/29 09:10:21;;;;;;;;;57.00;45.00;;;;;7.34;100.00;102649.47;5028213;28;46958;-75
2023/01/29 09:12:46;;;;;;;;;56.50;43.25;;;;;7.65;100.00;102646.63;5020680;28;45799;-75
2023/01/29 09:15:12;;;;;;;;;54.00;43.25;;;;;8.34;100.00;102646.56;5025617;28;45377;-75
2023/01/29 09:17:37;;;;;;;;;56.50;44.75;;;;;8.98;100.00;102648.56;5014686;28;45650;-76
2023/01/29 09:20:04;;;;;;;;;52.50;41.25;;;;;9.61;100.00;102638.66;5021171;28;45688;-75
2023/01/29 09:22:31;;;;;;;;;43.00;37.00;;;;;9.81;100.00;102630.28;5031596;28;45829;-76
2023/01/29 09:24:56;;;;;;;;;49.75;37.25;;;;;10.31;100.00;102628.78;5029146;28;45769;-76
2023/01/29 09:27:22;;;;;;;;;52.00;40.25;;;;;11.15;100.00;102620.84;5014504;28;45606;-74
2023/01/29 09:29:47;;;;;;;;;51.25;39.75;;;;;11.89;100.00;102637.50;5005649;28;48212;-75
2023/01/29 09:32:13;;;;;;;;;51.00;39.00;;;;;12.48;100.00;102627.13;5016294;28;45396;-74
2023/01/29 09:34:39;;;;;;;;;45.25;36.75;;;;;13.24;100.00;102623.94;5018201;28;45394;-74
2023/01/29 09:37:05;;;;;;;;;47.75;38.00;;;;;13.66;100.00;102630.94;5015188;28;45519;-74
2023/01/29 09:39:30;;;;;;;;;55.00;40.67;;;;;14.11;97.86;102628.34;5024471;28;45452;-72
2023/01/29 09:42:05;;;;;;;;;46.00;36.67;;;;;14.76;94.83;102621.34;5017108;28;46075;-74
2023/01/29 09:44:31;;;;;;;;;53.33;42.33;;;;;15.50;91.35;102630.53;5012503;28;45687;-74
2023/01/29 09:46:59;;;;;;;;;50.67;40.33;;;;;15.86;89.92;102627.75;5018920;28;45871;-75
2023/01/29 09:49:33;;;;;;;;;44.67;37.00;;;;;16.36;88.65;102627.78;5026598;28;45504;-73
2023/01/29 09:52:04;;;;;;;;;44.00;35.67;;;;;16.67;83.63;102623.69;5018264;28;45540;-76
2023/01/29 09:54:44;;;;;;;;;44.33;34.67;;;;;17.10;80.83;102623.53;5028145;28;45777;-75
2023/01/29 09:57:17;;;;;;;;;39.67;35.33;;;;;17.36;77.99;102621.09;5017773;28;45362;-76
2023/01/29 09:59:42;;;;;;;;;46.33;36.00;;;;;17.45;77.32;102625.38;5018581;28;45844;-77
2023/01/29 10:02:38;;;;;;;;;49.00;37.33;;;;;17.10;75.21;102626.31;5019783;28;45238;-77
2023/01/29 10:05:37;;;;;;;;;47.67;38.33;;;;;16.57;74.49;102632.41;5014497;28;45383;-78
2023/01/29 10:08:27;;;;;;;;;54.33;40.67;;;;;15.93;75.82;102627.84;5031039;28;45640;-77
2023/01/29 10:11:20;;;;;;;;;50.00;39.67;;;;;15.29;76.30;102626.69;5030986;28;46439;-76
2023/01/29 10:14:04;;;;;;;;;50.33;40.33;;;;;14.90;76.65;102624.28;5025485;28;45709;-77
2023/01/29 10:16:42;;;;;;;;;52.33;40.67;;;;;14.58;79.18;102621.69;5023492;28;45417;-77
2023/01/29 10:19:23;;;;;;;;;57.00;43.67;;;;;14.68;77.87;102617.81;5025693;28;45392;-76
2023/01/29 10:22:18;;;;;;;;;56.67;44.00;;;;;14.77;77.38;102622.19;5026008;28;46229;-79
2023/01/29 10:24:52;;;;;;;;;54.67;44.00;;;;;14.85;79.64;102615.69;5016958;28;45467;-78
2023/01/29 10:27:18;;;;;;;;;45.00;39.00;;;;;14.95;79.25;102611.59;5006700;28;45971;-77
2023/01/29 10:29:47;;;;;;;;;54.00;40.67;;;;;15.08;79.12;102608.16;5015387;28;45588;-77
2023/01/29 10:32:16;;;;;;;;;50.33;39.67;;;;;15.00;77.39;102608.28;5023202;28;46955;-78
2023/01/29 10:34:47;;;;;;;;;49.67;41.67;;;;;14.80;79.50;102600.53;5022509;28;45487;-77
2023/01/29 10:37:20;;;;;;;;;65.50;50.50;;;;;14.68;81.23;102598.47;5031901;28;45599;-79
2023/01/29 10:39:46;;;;;;;;;55.33;43.00;;;;;14.51;78.35;102584.81;5024811;28;45758;-77
2023/01/29 10:42:29;;;;;;;;;55.67;43.67;;;;;14.47;79.21;102592.63;5020988;28;47033;-78
2023/01/29 10:45:04;;;;;;;;;61.00;47.75;;;;;14.75;80.72;102580.09;5021001;28;45409;-75
2023/01/29 10:48:03;;;;;;;;;54.00;42.67;;;;;14.86;77.76;102587.03;5003895;28;45396;-76
2023/01/29 10:51:01;;;;;;;;;50.67;37.00;;;;;14.87;77.35;102589.59;5021680;28;45932;-78
2023/01/29 10:53:56;;;;;;;;;50.33;42.67;;;;;15.15;78.77;102578.69;5031537;28;46515;-75
2023/01/29 10:56:46;;;;;;;;;54.33;42.33;;;;;15.54;80.69;102580.19;5026621;28;45583;-74
2023/01/29 10:59:29;;;;;;;;;62.33;45.33;;;;;15.68;78.68;102569.25;5024255;28;45741;-77
2023/01/29 11:01:59;;;;;;;;;53.33;41.33;;;;;15.65;76.88;102570.50;5022242;28;45778;-78
2023/01/29 11:04:27;;;;;;;;;56.00;45.67;;;;;15.65;80.45;102564.13;5028747;28;45725;-78
2023/01/29 11:06:52;;;;;;;;;49.67;40.33;;;;;15.63;76.55;102561.56;5027926;28;46500;-76
2023/01/29 11:09:34;;;;;;;;;55.67;46.67;;;;;15.51;79.03;102571.44;5019448;28;45500;-75
2023/01/29 11:12:33;;;;;;;;;46.00;38.33;;;;;15.27;76.75;102569.88;5020715;28;45650;-77
2023/01/29 11:15:17;;;;;;;;;54.00;41.00;;;;;14.96;74.05;102574.63;4998691;28;45558;-77
2023/01/29 11:18:02;;;;;;;;;58.00;44.67;;;;;14.70;77.15;102572.38;5029827;28;46068;-77
2023/01/29 11:20:30;;;;;;;;;55.67;42.33;;;;;14.56;79.55;102563.00;5026455;28;45624;-78
2023/01/29 11:22:55;;;;;;;;;48.33;40.33;;;;;14.40;78.33;102561.31;5026045;28;45416;-77
2023/01/29 11:25:21;;;;;;;;;54.33;44.33;;;;;14.30;78.00;102555.22;5018873;28;45547;-76
2023/01/29 11:27:51;;;;;;;;;56.67;44.67;;;;;14.06;75.58;102554.41;5029635;28;45449;-77
2023/01/29 11:30:26;;;;;;;;;48.00;40.33;;;;;13.82;76.65;102536.22;5030407;28;46228;-78
2023/01/29 11:33:25;;;;;;;;;53.00;41.67;;;;;13.57;75.64;102550.19;5024540;28;45931;-77
2023/01/29 11:35:51;;;;;;;;;55.67;44.33;;;;;13.41;77.19;102548.44;5003181;28;47221;-77
2023/01/29 11:38:29;;;;;;;;;61.33;48.00;;;;;13.32;81.66;102545.88;5025409;28;45553;-77
2023/01/29 11:41:17;;;;;;;;;48.25;38.50;;;;;13.31;80.98;102538.63;5022954;28;45797;-77
2023/01/29 11:43:42;;;;;;;;;51.00;41.67;;;;;13.30;79.44;102536.94;5019391;28;45673;-79
2023/01/29 11:46:14;;;;;;;;;58.00;45.00;;;;;13.21;77.31;102538.91;5027358;28;45445;-78
2023/01/29 11:48:46;;;;;;;;;47.33;37.00;;;;;13.06;78.28;102531.41;5026724;28;45368;-76
2023/01/29 11:51:22;;;;;;;;;51.00;42.33;;;;;13.00;79.02;102536.78;5015855;28;45980;-74
2023/01/29 11:54:01;;;;;;;;;48.67;40.67;;;;;12.94;79.80;102527.34;5024809;28;45440;-76
2023/01/29 11:56:41;;;;;;;;;51.33;41.33;;;;;12.96;81.57;102528.00;5025281;28;45813;-76